createdAt,value
2023-02-16T00:02:13.528Z,99162.50
2023-02-16T00:04:42.906Z,99159.16
2023-02-16T00:07:11.662Z,99162.69
2023-02-16T00:09:40.544Z,99152.91
2023-02-16T00:12:35.169Z,99156.47
2023-02-16T00:15:15.522Z,99164.53
2023-02-16T00:17:45.339Z,99156.47
2023-02-16T00:20:16.938Z,99160.13
2023-02-16T00:22:45.812Z,99149.38
2023-02-16T00:25:14.708Z,99154.75
2023-02-16T00:27:44.634Z,99147.69
2023-02-16T00:30:16.525Z,99149.56
2023-02-16T00:32:45.378Z,99146.69
2023-02-16T00:35:16.339Z,99145.84
2023-02-16T00:37:45.283Z,99134.25
2023-02-16T00:40:14.831Z,99136.09
2023-02-16T00:42:45.200Z,99135.09
2023-02-16T00:45:17.395Z,99134.25
2023-02-16T00:47:46.964Z,99127.22
2023-02-16T00:50:20.178Z,99128.03
2023-02-16T00:52:49.059Z,99132.59
2023-02-16T00:55:19.726Z,99116.47
2023-02-16T00:57:51.836Z,99120.97
2023-02-16T01:00:23.907Z,99121.84
2023-02-16T01:02:53.599Z,99116.47
2023-02-16T01:05:22.975Z,99118.28
2023-02-16T01:08:08.887Z,99130.88
2023-02-16T01:11:07.038Z,99104.00
2023-02-16T01:13:40.862Z,99115.59
2023-02-16T01:16:18.085Z,99108.53
2023-02-16T01:18:46.884Z,99115.59
2023-02-16T01:21:16.399Z,99107.53
2023-02-16T01:23:45.438Z,99101.31
2023-02-16T01:26:16.596Z,99096.78
2023-02-16T01:28:46.871Z,99087.19
2023-02-16T01:31:16.111Z,99084.50
2023-02-16T01:33:45.194Z,99090.72
2023-02-16T01:36:24.134Z,99083.50
2023-02-16T01:38:53.127Z,99082.66
2023-02-16T01:41:28.243Z,99089.88
2023-02-16T01:44:00.452Z,99084.50
2023-02-16T01:46:35.247Z,99079.13
2023-02-16T01:49:04.117Z,99089.88
2023-02-16T01:51:37.265Z,99084.66
2023-02-16T01:54:10.611Z,99079.13
2023-02-16T01:56:43.200Z,99082.81
2023-02-16T01:59:18.082Z,99076.59
2023-02-16T02:01:52.513Z,99080.13
2023-02-16T02:04:57.509Z,99088.19
2023-02-16T02:07:28.984Z,99078.28
2023-02-16T02:10:02.754Z,99078.28
2023-02-16T02:12:38.090Z,99079.28
2023-02-16T02:15:09.331Z,99068.53
2023-02-16T02:17:38.312Z,99066.69
2023-02-16T02:20:13.863Z,99063.84
2023-02-16T02:23:33.910Z,99067.53
2023-02-16T02:26:45.479Z,99063.00
2023-02-16T02:29:36.805Z,99063.00
2023-02-16T02:32:10.623Z,99079.13
2023-02-16T02:34:50.408Z,99081.81
2023-02-16T02:37:23.027Z,99079.97
2023-02-16T02:39:56.945Z,99077.28
2023-02-16T02:42:31.560Z,99072.91
2023-02-16T02:45:03.598Z,99067.53
2023-02-16T02:47:41.821Z,99066.69
2023-02-16T02:51:10.270Z,99065.00
2023-02-16T02:53:42.413Z,99061.31
2023-02-16T02:56:28.352Z,99074.75
2023-02-16T02:59:20.768Z,99070.38
2023-02-16T03:01:52.696Z,99075.75
2023-02-16T03:04:23.653Z,99075.75
2023-02-16T03:06:53.937Z,99070.38
2023-02-16T03:09:22.815Z,99076.59
2023-02-16T03:12:09.031Z,99070.38
2023-02-16T03:14:41.806Z,99076.75
2023-02-16T03:17:30.470Z,99074.91
2023-02-16T03:20:18.475Z,99082.13
2023-02-16T03:23:04.918Z,99075.06
2023-02-16T03:25:52.365Z,99075.91
2023-02-16T03:28:41.503Z,99076.75
2023-02-16T03:31:13.625Z,99071.56
2023-02-16T03:33:42.371Z,99065.31
2023-02-16T03:36:11.773Z,99066.31
2023-02-16T03:38:41.051Z,99064.47
2023-02-16T03:41:09.791Z,99065.31
2023-02-16T03:43:38.731Z,99063.63
2023-02-16T03:46:07.970Z,99064.66
2023-02-16T03:48:38.395Z,99058.25
2023-02-16T03:51:07.411Z,99055.56
2023-02-16T03:53:36.232Z,99060.09
2023-02-16T03:56:05.056Z,99052.88
2023-02-16T03:58:33.866Z,99058.25
2023-02-16T04:01:03.364Z,99046.66
2023-02-16T04:03:32.554Z,99052.88
2023-02-16T04:06:03.009Z,99054.88
2023-02-16T04:08:31.741Z,99034.25
2023-02-16T04:11:00.531Z,99043.16
2023-02-16T04:13:28.424Z,99042.31
2023-02-16T04:15:57.107Z,99041.28
2023-02-16T04:18:26.175Z,99037.78
2023-02-16T04:20:55.344Z,99042.41
2023-02-16T04:23:25.626Z,99040.47
2023-02-16T04:25:54.309Z,99036.94
2023-02-16T04:28:23.041Z,99031.66
2023-02-16T04:30:52.209Z,99028.88
2023-02-16T04:33:20.938Z,99037.78
2023-02-16T04:35:50.182Z,99028.88
2023-02-16T04:38:18.857Z,99030.53
2023-02-16T04:40:48.897Z,99034.25
2023-02-16T04:43:17.771Z,99027.16
2023-02-16T04:45:46.492Z,99023.50
2023-02-16T04:48:15.352Z,99022.63
2023-02-16T04:50:44.227Z,99020.81
2023-02-16T04:53:12.898Z,99028.00
2023-02-16T04:55:42.571Z,99020.81
2023-02-16T04:58:12.700Z,99022.63
2023-02-16T05:00:41.530Z,99037.91
2023-02-16T05:03:10.330Z,99034.34
2023-02-16T05:05:39.329Z,99037.03
2023-02-16T05:08:08.628Z,99035.22
2023-02-16T05:10:37.678Z,99028.00
2023-02-16T05:13:24.245Z,99028.00
2023-02-16T05:15:54.564Z,99026.28
2023-02-16T05:18:23.355Z,99025.31
2023-02-16T05:21:09.478Z,99017.41
2023-02-16T05:23:39.489Z,99012.84
2023-02-16T05:26:08.047Z,99022.06
2023-02-16T05:28:36.859Z,99025.78
2023-02-16T05:31:07.730Z,99025.94
2023-02-16T05:33:36.727Z,99025.94
2023-02-16T05:36:06.626Z,99033.84
2023-02-16T05:38:35.340Z,99026.94
2023-02-16T05:41:04.253Z,99030.28
2023-02-16T05:43:33.356Z,99027.78
2023-02-16T05:46:02.086Z,99017.88
2023-02-16T05:48:32.479Z,99020.22
2023-02-16T05:51:01.255Z,99024.47
2023-02-16T05:53:30.386Z,99024.63
2023-02-16T05:55:59.155Z,99031.16
2023-02-16T05:58:27.986Z,99028.28
2023-02-16T06:00:56.791Z,99026.44
2023-02-16T06:03:25.508Z,99028.09
2023-02-16T06:05:56.988Z,99030.84
2023-02-16T06:08:25.784Z,99046.19
2023-02-16T06:10:54.745Z,99048.25
2023-02-16T06:13:24.498Z,99054.81
2023-02-16T06:15:54.048Z,99054.69
2023-02-16T06:18:22.847Z,99062.03
2023-02-16T06:20:51.574Z,99059.69
2023-02-16T06:23:22.880Z,99058.16
2023-02-16T06:25:52.386Z,99063.69
2023-02-16T06:28:21.125Z,99054.31
2023-02-16T06:30:50.005Z,99064.88
2023-02-16T06:33:18.732Z,99063.34
2023-02-16T06:35:47.606Z,99068.72
2023-02-16T06:38:17.285Z,99065.53
2023-02-16T06:40:48.034Z,99058.63
2023-02-16T06:43:16.677Z,99058.63
2023-02-16T06:45:45.382Z,99063.00
2023-02-16T06:48:14.370Z,99067.44
2023-02-16T06:50:43.207Z,99062.88
2023-02-16T06:53:15.186Z,99055.28
2023-02-16T06:55:43.814Z,99061.81
2023-02-16T06:58:14.066Z,99057.78
2023-02-16T07:00:42.666Z,99061.63
2023-02-16T07:03:11.734Z,99062.31
2023-02-16T07:05:40.471Z,99057.94
2023-02-16T07:08:09.305Z,99049.53
2023-02-16T07:10:49.401Z,99061.34
2023-02-16T07:13:20.606Z,99066.59
2023-02-16T07:15:49.501Z,99065.44
2023-02-16T07:18:18.259Z,99072.44
2023-02-16T07:20:47.265Z,99067.34
2023-02-16T07:23:15.972Z,99065.00
2023-02-16T07:25:44.794Z,99068.38
2023-02-16T07:28:13.758Z,99072.75
2023-02-16T07:30:44.178Z,99055.63
2023-02-16T07:33:13.332Z,99060.16
2023-02-16T07:35:41.959Z,99065.38
2023-02-16T07:38:11.044Z,99063.69
2023-02-16T07:40:39.939Z,99065.19
2023-02-16T07:43:09.350Z,99067.38
2023-02-16T07:45:38.493Z,99067.75
2023-02-16T07:48:08.611Z,99067.75
2023-02-16T07:50:38.409Z,99062.16
2023-02-16T07:53:07.635Z,99074.78
2023-02-16T07:55:40.675Z,99074.78
2023-02-16T07:58:09.524Z,99069.81
2023-02-16T08:00:38.379Z,99064.41
2023-02-16T08:03:08.669Z,99061.88
2023-02-16T08:05:38.965Z,99056.66
2023-02-16T08:08:08.225Z,99054.13
2023-02-16T08:10:36.926Z,99050.47
2023-02-16T08:13:05.970Z,99057.50
2023-02-16T08:15:34.719Z,99052.13
2023-02-16T08:18:03.656Z,99051.28
2023-02-16T08:20:53.928Z,99053.28
2023-02-16T08:23:22.766Z,99049.91
2023-02-16T08:25:51.621Z,99052.47
2023-02-16T08:28:22.197Z,99050.59
2023-02-16T08:30:51.494Z,99050.47
2023-02-16T08:33:20.485Z,99049.59
2023-02-16T08:35:50.861Z,99045.06
2023-02-16T08:38:21.941Z,99045.91
2023-02-16T08:40:50.881Z,99050.28
2023-02-16T08:43:19.581Z,99053.81
2023-02-16T08:45:49.290Z,99065.44
2023-02-16T08:48:18.147Z,99062.56
2023-02-16T08:50:53.807Z,99064.25
2023-02-16T08:53:25.328Z,99051.81
2023-02-16T08:55:55.819Z,99054.50
2023-02-16T08:58:25.014Z,99052.63
2023-02-16T09:00:53.933Z,99054.34
2023-02-16T09:03:22.580Z,99053.50
2023-02-16T09:05:52.967Z,99056.19
2023-02-16T09:08:23.263Z,99057.19
2023-02-16T09:10:52.050Z,99052.63
2023-02-16T09:13:20.999Z,99053.50
2023-02-16T09:15:50.493Z,99060.72
2023-02-16T09:18:19.406Z,99056.19
2023-02-16T09:20:48.066Z,99058.03
2023-02-16T09:23:17.179Z,99057.66
2023-02-16T09:25:48.434Z,99060.03
2023-02-16T09:28:17.656Z,99061.72
2023-02-16T09:30:46.381Z,99061.72
2023-02-16T09:33:15.416Z,99072.16
2023-02-16T09:35:44.233Z,99062.56
2023-02-16T09:38:16.854Z,99075.16
2023-02-16T09:40:46.979Z,99077.84
2023-02-16T09:43:25.636Z,99072.47
2023-02-16T09:45:55.208Z,99077.84
2023-02-16T09:48:32.415Z,99067.09
2023-02-16T09:51:01.364Z,99075.16
2023-02-16T09:53:39.620Z,99074.16
2023-02-16T09:56:20.223Z,99069.78
2023-02-16T09:58:51.773Z,99069.78
2023-02-16T10:01:25.676Z,99061.72
2023-02-16T10:04:00.964Z,99054.69
2023-02-16T10:06:44.178Z,99061.72
2023-02-16T10:09:16.591Z,99059.03
2023-02-16T10:11:50.350Z,99058.19
2023-02-16T10:14:31.890Z,99055.50
2023-02-16T10:17:07.872Z,99049.28
2023-02-16T10:19:40.719Z,99052.81
2023-02-16T10:22:17.350Z,99045.59
2023-02-16T10:24:56.720Z,99052.81
2023-02-16T10:27:28.406Z,99042.06
2023-02-16T10:29:57.297Z,99039.38
2023-02-16T10:32:29.330Z,99027.78
2023-02-16T10:35:06.306Z,99037.66
2023-02-16T10:37:48.332Z,99029.31
2023-02-16T10:40:44.243Z,99031.13
2023-02-16T10:43:17.121Z,99022.91
2023-02-16T10:45:52.475Z,99020.22
2023-02-16T10:48:21.958Z,99005.94
2023-02-16T10:50:58.664Z,99010.50
2023-02-16T10:53:37.760Z,99004.25
2023-02-16T10:56:25.005Z,98991.69
2023-02-16T10:58:55.130Z,98986.44
2023-02-16T11:01:31.893Z,98986.31
2023-02-16T11:04:00.917Z,98980.91
2023-02-16T11:06:29.917Z,98982.91
2023-02-16T11:09:01.706Z,98976.53
2023-02-16T11:11:32.048Z,98975.69
2023-02-16T11:14:06.901Z,98974.03
2023-02-16T11:16:37.558Z,98976.03
2023-02-16T11:19:09.053Z,98969.81
2023-02-16T11:21:48.011Z,98971.63
2023-02-16T11:24:28.007Z,98967.28
2023-02-16T11:27:05.855Z,98965.59
2023-02-16T11:29:37.074Z,98956.66
2023-02-16T11:32:10.038Z,98958.38
2023-02-16T11:34:41.497Z,98953.00
2023-02-16T11:37:17.578Z,98950.31
2023-02-16T11:39:52.043Z,98950.13
2023-02-16T11:42:30.746Z,98956.19
2023-02-16T11:45:01.201Z,98952.66
2023-02-16T11:47:32.538Z,98956.19
2023-02-16T11:50:20.336Z,98951.81
2023-02-16T11:52:50.724Z,98963.28
2023-02-16T11:55:27.532Z,98958.88
2023-02-16T11:57:57.307Z,98954.50
2023-02-16T12:00:28.148Z,98943.75
2023-02-16T12:03:33.527Z,98948.97
2023-02-16T12:06:13.502Z,98949.81
2023-02-16T12:09:04.935Z,98943.44
2023-02-16T12:11:41.187Z,98935.00
2023-02-16T12:14:27.453Z,98934.19
2023-02-16T12:17:02.535Z,98930.00
2023-02-16T12:19:39.788Z,98936.69
2023-02-16T12:22:20.376Z,98944.59
2023-02-16T12:24:56.081Z,98929.66
2023-02-16T12:27:30.141Z,98933.38
2023-02-16T12:30:04.066Z,98928.97
2023-02-16T12:32:44.501Z,98930.50
2023-02-16T12:35:48.802Z,98925.31
2023-02-16T12:38:27.148Z,98925.63
2023-02-16T12:41:01.435Z,98917.56
2023-02-16T12:43:39.059Z,98920.25
2023-02-16T12:46:14.527Z,98933.50
2023-02-16T12:48:50.642Z,98920.25
2023-02-16T12:51:21.956Z,98914.00
2023-02-16T12:53:58.263Z,98920.25
2023-02-16T12:56:30.000Z,98897.88
2023-02-16T12:59:14.480Z,98898.75
2023-02-16T13:01:43.150Z,98896.22
2023-02-16T13:04:21.266Z,98899.59
2023-02-16T13:06:55.798Z,98897.03
2023-02-16T13:09:34.419Z,98893.38
2023-02-16T13:12:08.484Z,98888.97
2023-02-16T13:14:40.188Z,98886.28
2023-02-16T13:17:13.638Z,98879.06
2023-02-16T13:19:44.108Z,98889.81
2023-02-16T13:22:37.057Z,98883.44
2023-02-16T13:25:39.835Z,98881.75
2023-02-16T13:28:23.705Z,98879.94
2023-02-16T13:31:08.353Z,98877.06
2023-02-16T13:33:50.623Z,98883.44
2023-02-16T13:36:41.164Z,98880.78
2023-02-16T13:39:32.113Z,98885.97
2023-02-16T13:42:43.223Z,98882.28
2023-02-16T13:45:16.577Z,98883.28
2023-02-16T13:47:45.401Z,98879.59
2023-02-16T13:50:28.761Z,98864.44
2023-02-16T13:53:00.840Z,98864.44
2023-02-16T13:55:33.210Z,98864.44
2023-02-16T13:58:06.605Z,98854.53
2023-02-16T14:00:38.223Z,98862.28
2023-02-16T14:03:13.451Z,98859.41
2023-02-16T14:05:43.043Z,98852.38
2023-02-16T14:08:17.029Z,98863.13
2023-02-16T14:11:08.395Z,98858.56
2023-02-16T14:13:49.804Z,98860.44
2023-02-16T14:16:35.274Z,98867.66
2023-02-16T14:19:07.090Z,98859.59
2023-02-16T14:21:41.233Z,98852.38
2023-02-16T14:24:23.259Z,98856.91
2023-02-16T14:26:59.377Z,98862.28
2023-02-16T14:29:30.145Z,98858.91
2023-02-16T14:32:02.963Z,98856.03
2023-02-16T14:34:36.715Z,98859.75
2023-02-16T14:37:32.031Z,98860.59
2023-02-16T14:40:24.244Z,98854.38
2023-02-16T14:42:57.834Z,98854.38
2023-02-16T14:45:55.876Z,98860.59
2023-02-16T14:49:05.054Z,98873.19
2023-02-16T14:52:02.212Z,98873.19
2023-02-16T14:55:12.529Z,98865.28
2023-02-16T14:57:45.896Z,98871.50
2023-02-16T15:00:19.923Z,98871.16
2023-02-16T15:03:00.366Z,98874.69
2023-02-16T15:05:32.959Z,98874.34
2023-02-16T15:08:10.883Z,98863.09
2023-02-16T15:10:40.603Z,98857.53
2023-02-16T15:13:10.775Z,98860.06
2023-02-16T15:15:47.095Z,98855.53
2023-02-16T15:18:18.386Z,98860.06
2023-02-16T15:20:48.426Z,98863.78
2023-02-16T15:23:21.957Z,98868.13
2023-02-16T15:25:58.190Z,98861.09
2023-02-16T15:28:29.569Z,98870.16
2023-02-16T15:30:59.886Z,98863.44
2023-02-16T15:33:36.331Z,98870.50
2023-02-16T15:36:09.005Z,98860.75
2023-02-16T15:38:39.133Z,98863.44
2023-02-16T15:41:09.894Z,98863.13
2023-02-16T15:43:46.412Z,98858.44
2023-02-16T15:46:17.082Z,98860.25
2023-02-16T15:48:46.794Z,98858.91
2023-02-16T15:51:17.593Z,98849.16
2023-02-16T15:53:50.407Z,98848.16
2023-02-16T15:56:36.117Z,98840.78
2023-02-16T15:59:24.073Z,98838.56
2023-02-16T16:01:59.024Z,98832.19
2023-02-16T16:04:28.476Z,98849.31
2023-02-16T16:06:57.193Z,98853.69
2023-02-16T16:09:27.854Z,98851.00
2023-02-16T16:11:58.532Z,98833.88
2023-02-16T16:14:28.865Z,98838.72
2023-02-16T16:16:57.548Z,98843.94
2023-02-16T16:19:33.890Z,98844.97
2023-02-16T16:22:02.745Z,98859.25
2023-02-16T16:24:35.315Z,98846.47
2023-02-16T16:27:06.979Z,98849.00
2023-02-16T16:29:41.302Z,98844.97
2023-02-16T16:32:20.699Z,98846.97
2023-02-16T16:34:49.524Z,98846.13
2023-02-16T16:37:27.956Z,98850.50
2023-02-16T16:40:03.433Z,98850.50
2023-02-16T16:42:33.680Z,98851.34
2023-02-16T16:45:07.637Z,98848.63
2023-02-16T16:47:39.292Z,98844.97
2023-02-16T16:50:39.947Z,98847.66
2023-02-16T16:53:45.639Z,98856.56
2023-02-16T16:56:15.288Z,98846.78
2023-02-16T16:58:43.983Z,98843.94
2023-02-16T17:01:14.982Z,98842.28
2023-02-16T17:03:43.877Z,98846.47
2023-02-16T17:06:14.263Z,98845.97
2023-02-16T17:08:43.093Z,98842.59
2023-02-16T17:11:13.860Z,98850.50
2023-02-16T17:13:42.508Z,98846.16
2023-02-16T17:16:15.525Z,98849.81
2023-02-16T17:18:44.545Z,98855.38
2023-02-16T17:21:13.801Z,98856.38
2023-02-16T17:23:52.376Z,98860.06
2023-02-16T17:26:21.875Z,98845.81
2023-02-16T17:28:50.599Z,98846.63
2023-02-16T17:31:20.831Z,98846.47
2023-02-16T17:33:49.919Z,98845.47
2023-02-16T17:36:18.612Z,98853.03
2023-02-16T17:38:47.283Z,98849.81
2023-02-16T17:41:20.683Z,98843.63
2023-02-16T17:43:49.241Z,98842.78
2023-02-16T17:46:19.849Z,98843.94
2023-02-16T17:48:51.993Z,98840.09
2023-02-16T17:51:22.173Z,98848.16
2023-02-16T17:53:50.939Z,98841.25
2023-02-16T17:56:22.387Z,98843.94
2023-02-16T17:58:51.723Z,98849.16
2023-02-16T18:01:22.411Z,98850.84
2023-02-16T18:03:51.240Z,98840.09
2023-02-16T18:06:25.502Z,98847.31
2023-02-16T18:08:55.868Z,98847.31
2023-02-16T18:11:24.462Z,98849.81
2023-02-16T18:13:53.177Z,98840.78
2023-02-16T18:16:26.858Z,98854.22
2023-02-16T18:18:57.344Z,98863.94
2023-02-16T18:21:26.716Z,98859.41
2023-02-16T18:23:55.490Z,98866.63
2023-02-16T18:26:24.029Z,98863.13
2023-02-16T18:28:53.305Z,98867.47
2023-02-16T18:31:23.450Z,98871.00
2023-02-16T18:33:52.518Z,98876.38
2023-02-16T18:36:21.377Z,98868.31
2023-02-16T18:38:51.736Z,98863.81
2023-02-16T18:41:20.398Z,98875.53
2023-02-16T18:43:49.084Z,98871.88
2023-02-16T18:46:18.852Z,98880.91
2023-02-16T18:48:48.846Z,98876.56
2023-02-16T18:51:17.976Z,98882.91
2023-02-16T18:53:46.707Z,98883.94
2023-02-16T18:56:15.246Z,98877.72
2023-02-16T18:58:44.498Z,98875.88
2023-02-16T19:01:15.079Z,98878.91
2023-02-16T19:03:43.961Z,98878.06
2023-02-16T19:06:14.637Z,98876.38
2023-02-16T19:08:43.352Z,98874.56
2023-02-16T19:11:14.304Z,98873.19
2023-02-16T19:13:43.204Z,98876.22
2023-02-16T19:16:12.028Z,98876.22
2023-02-16T19:18:41.441Z,98872.00
2023-02-16T19:21:11.275Z,98874.38
2023-02-16T19:23:42.264Z,98879.59
2023-02-16T19:26:12.388Z,98873.19
2023-02-16T19:28:41.151Z,98870.50
2023-02-16T19:31:17.804Z,98873.19
2023-02-16T19:33:46.756Z,98876.91
2023-02-16T19:36:15.983Z,98880.59
2023-02-16T19:38:46.196Z,98880.59
2023-02-16T19:41:16.972Z,98875.53
2023-02-16T19:43:45.782Z,98873.53
2023-02-16T19:46:14.621Z,98867.31
2023-02-16T19:48:43.525Z,98871.69
2023-02-16T19:51:12.309Z,98876.91
2023-02-16T19:53:43.896Z,98868.81
2023-02-16T19:56:16.126Z,98858.06
2023-02-16T19:58:44.740Z,98854.22
2023-02-16T20:01:14.733Z,98858.56
2023-02-16T20:03:43.381Z,98856.03
2023-02-16T20:06:16.716Z,98855.75
2023-02-16T20:08:46.293Z,98863.47
2023-02-16T20:11:16.607Z,98861.75
2023-02-16T20:13:45.454Z,98867.13
2023-02-16T20:16:14.656Z,98873.53
2023-02-16T20:18:43.286Z,98864.44
2023-02-16T20:21:14.090Z,98867.00
2023-02-16T20:23:43.656Z,98861.75
2023-02-16T20:26:18.837Z,98870.84
2023-02-16T20:28:47.682Z,98866.31
2023-02-16T20:31:18.268Z,98875.22
2023-02-16T20:33:47.193Z,98880.59
2023-02-16T20:36:16.390Z,98870.00
2023-02-16T20:38:45.077Z,98861.94
2023-02-16T20:41:15.288Z,98861.13
2023-02-16T20:43:44.376Z,98863.81
2023-02-16T20:46:13.217Z,98862.94
2023-02-16T20:48:41.998Z,98858.56
2023-02-16T20:51:12.097Z,98867.66
2023-02-16T20:53:40.842Z,98866.97
2023-02-16T20:56:12.666Z,98860.06
2023-02-16T20:58:43.253Z,98853.34
2023-02-16T21:01:15.784Z,98868.63
2023-02-16T21:03:44.556Z,98864.25
2023-02-16T21:06:13.425Z,98860.41
2023-02-16T21:08:41.966Z,98861.41
2023-02-16T21:11:10.765Z,98853.34
2023-02-16T21:13:39.784Z,98856.03
2023-02-16T21:16:10.237Z,98853.34
2023-02-16T21:18:40.594Z,98856.19
2023-02-16T21:21:09.496Z,98857.88
2023-02-16T21:23:38.579Z,98862.09
2023-02-16T21:26:07.608Z,98854.03
2023-02-16T21:28:37.094Z,98851.34
2023-02-16T21:31:06.691Z,98855.72
2023-02-16T21:33:37.440Z,98855.72
2023-02-16T21:36:11.945Z,98850.50
2023-02-16T21:38:41.352Z,98855.72
2023-02-16T21:41:25.031Z,98851.34
2023-02-16T21:44:00.831Z,98845.97
2023-02-16T21:46:31.574Z,98845.13
2023-02-16T21:49:00.718Z,98848.63
2023-02-16T21:51:31.732Z,98844.28
2023-02-16T21:54:00.981Z,98847.97
2023-02-16T21:56:35.740Z,98853.34
2023-02-16T21:59:05.284Z,98848.81
2023-02-16T22:01:35.791Z,98846.13
2023-02-16T22:04:06.869Z,98842.59
2023-02-16T22:06:37.052Z,98843.59
2023-02-16T22:09:07.898Z,98840.06
2023-02-16T22:11:37.678Z,98840.91
2023-02-16T22:14:06.339Z,98848.97
2023-02-16T22:16:36.531Z,98847.31
2023-02-16T22:19:08.748Z,98847.31
2023-02-16T22:21:38.385Z,98856.19
2023-02-16T22:24:08.194Z,98848.28
2023-02-16T22:26:37.283Z,98850.16
2023-02-16T22:29:07.884Z,98847.47
2023-02-16T22:31:36.777Z,98842.91
2023-02-16T22:34:08.677Z,98840.22
2023-02-16T22:36:37.843Z,98850.16
2023-02-16T22:39:06.765Z,98845.59
2023-02-16T22:41:35.817Z,98852.84
2023-02-16T22:44:04.706Z,98843.94
2023-02-16T22:46:33.448Z,98838.72
2023-02-16T22:49:02.145Z,98849.31
2023-02-16T22:51:32.785Z,98844.91
2023-02-16T22:54:02.455Z,98843.09
2023-02-16T22:56:31.976Z,98844.91
2023-02-16T22:59:00.948Z,98854.00
2023-02-16T23:01:30.998Z,98851.31
2023-02-16T23:04:01.326Z,98851.31
2023-02-16T23:06:33.016Z,98845.94
2023-02-16T23:09:03.508Z,98845.09
2023-02-16T23:11:32.488Z,98848.63
2023-02-16T23:14:01.167Z,98846.97
2023-02-16T23:16:30.143Z,98848.81
2023-02-16T23:18:59.995Z,98852.31
2023-02-16T23:21:31.778Z,98851.50
2023-02-16T23:24:01.160Z,98848.94
2023-02-16T23:26:31.195Z,98851.50
2023-02-16T23:29:03.172Z,98842.56
2023-02-16T23:31:35.285Z,98845.25
2023-02-16T23:34:04.405Z,98836.50
2023-02-16T23:36:34.990Z,98840.88
2023-02-16T23:39:07.241Z,98828.44
2023-02-16T23:41:36.069Z,98826.59
2023-02-16T23:44:05.040Z,98826.59
2023-02-16T23:46:33.787Z,98821.22
2023-02-16T23:49:02.644Z,98819.38
2023-02-16T23:51:31.667Z,98813.16
2023-02-16T23:54:01.701Z,98811.31
2023-02-16T23:56:31.144Z,98814.13
2023-02-16T23:59:00.824Z,98812.31
